sensor_id;sensor_type;location;lat;lon;timestamp;P1;durP1;ratioP1;P2;durP2;ratioP2
50988;SDS011;37008;52.210;21.112;2023-01-10T00:00:41;56.38;;;31.08;;
50988;SDS011;37008;52.210;21.112;2023-01-10T00:03:08;52.75;;;31.33;;
50988;SDS011;37008;52.210;21.112;2023-01-10T00:05:35;52.50;;;31.77;;
50988;SDS011;37008;52.210;21.112;2023-01-10T00:08:02;49.63;;;30.88;;
50988;SDS011;37008;52.210;21.112;2023-01-10T00:10:29;54.95;;;32.35;;
50988;SDS011;37008;52.210;21.112;2023-01-10T00:12:55;55.08;;;32.40;;
50988;SDS011;37008;52.210;21.112;2023-01-10T00:15:40;55.20;;;30.80;;
50988;SDS011;37008;52.210;21.112;2023-01-10T00:18:05;54.53;;;31.38;;
50988;SDS011;37008;52.210;21.112;2023-01-10T00:20:31;53.55;;;30.48;;
50988;SDS011;37008;52.210;21.112;2023-01-10T00:22:57;61.50;;;32.85;;
50988;SDS011;37008;52.210;21.112;2023-01-10T00:25:23;56.67;;;32.38;;
50988;SDS011;37008;52.210;21.112;2023-01-10T00:27:51;57.80;;;32.00;;
50988;SDS011;37008;52.210;21.112;2023-01-10T00:30:25;61.17;;;33.50;;
50988;SDS011;37008;52.210;21.112;2023-01-10T00:32:51;64.60;;;35.83;;
50988;SDS011;37008;52.210;21.112;2023-01-10T00:35:17;65.57;;;35.22;;
50988;SDS011;37008;52.210;21.112;2023-01-10T00:37:44;67.45;;;34.08;;
50988;SDS011;37008;52.210;21.112;2023-01-10T00:40:09;68.28;;;34.70;;
50988;SDS011;37008;52.210;21.112;2023-01-10T00:42:36;73.80;;;36.63;;
50988;SDS011;37008;52.210;21.112;2023-01-10T00:45:20;72.45;;;35.88;;
50988;SDS011;37008;52.210;21.112;2023-01-10T00:47:48;70.60;;;37.03;;
50988;SDS011;37008;52.210;21.112;2023-01-10T00:50:14;74.53;;;36.38;;
50988;SDS011;37008;52.210;21.112;2023-01-10T00:52:40;67.85;;;34.78;;
50988;SDS011;37008;52.210;21.112;2023-01-10T00:55:06;73.40;;;37.20;;
50988;SDS011;37008;52.210;21.112;2023-01-10T00:57:32;79.38;;;37.47;;
50988;SDS011;37008;52.210;21.112;2023-01-10T00:59:57;76.47;;;38.03;;
50988;SDS011;37008;52.210;21.112;2023-01-10T01:02:23;75.32;;;36.78;;
50988;SDS011;37008;52.210;21.112;2023-01-10T01:04:49;76.78;;;36.88;;
50988;SDS011;37008;52.210;21.112;2023-01-10T01:07:14;78.57;;;38.17;;
50988;SDS011;37008;52.210;21.112;2023-01-10T01:09:40;78.38;;;38.85;;
50988;SDS011;37008;52.210;21.112;2023-01-10T01:12:25;73.82;;;38.42;;
50988;SDS011;37008;52.210;21.112;2023-01-10T01:14:51;82.65;;;40.42;;
50988;SDS011;37008;52.210;21.112;2023-01-10T01:17:16;78.75;;;38.58;;
50988;SDS011;37008;52.210;21.112;2023-01-10T01:19:42;75.38;;;36.85;;
50988;SDS011;37008;52.210;21.112;2023-01-10T01:22:08;73.30;;;36.90;;
50988;SDS011;37008;52.210;21.112;2023-01-10T01:24:33;78.85;;;38.55;;
50988;SDS011;37008;52.210;21.112;2023-01-10T01:26:59;72.20;;;39.70;;
50988;SDS011;37008;52.210;21.112;2023-01-10T01:29:25;76.05;;;38.35;;
50988;SDS011;37008;52.210;21.112;2023-01-10T01:31:50;71.95;;;37.42;;
50988;SDS011;37008;52.210;21.112;2023-01-10T01:34:16;70.20;;;38.53;;
50988;SDS011;37008;52.210;21.112;2023-01-10T01:36:41;74.85;;;36.10;;
50988;SDS011;37008;52.210;21.112;2023-01-10T01:39:07;71.53;;;36.60;;
50988;SDS011;37008;52.210;21.112;2023-01-10T01:41:32;75.38;;;37.83;;
50988;SDS011;37008;52.210;21.112;2023-01-10T01:44:17;68.43;;;36.85;;
50988;SDS011;37008;52.210;21.112;2023-01-10T01:46:48;64.60;;;34.88;;
50988;SDS011;37008;52.210;21.112;2023-01-10T01:49:19;71.55;;;37.53;;
50988;SDS011;37008;52.210;21.112;2023-01-10T01:51:48;67.30;;;35.65;;
50988;SDS011;37008;52.210;21.112;2023-01-10T01:54:19;68.80;;;36.47;;
50988;SDS011;37008;52.210;21.112;2023-01-10T01:56:46;70.68;;;36.78;;
50988;SDS011;37008;52.210;21.112;2023-01-10T01:59:17;72.55;;;37.17;;
50988;SDS011;37008;52.210;21.112;2023-01-10T02:01:48;72.35;;;36.92;;
50988;SDS011;37008;52.210;21.112;2023-01-10T02:04:19;73.75;;;37.35;;
50988;SDS011;37008;52.210;21.112;2023-01-10T02:06:49;70.97;;;37.42;;
50988;SDS011;37008;52.210;21.112;2023-01-10T02:11:51;71.15;;;37.17;;
50988;SDS011;37008;52.210;21.112;2023-01-10T02:14:19;73.43;;;37.58;;
50988;SDS011;37008;52.210;21.112;2023-01-10T02:16:45;80.85;;;39.55;;
50988;SDS011;37008;52.210;21.112;2023-01-10T02:19:22;69.72;;;35.13;;
50988;SDS011;37008;52.210;21.112;2023-01-10T02:38:35;93.07;;;42.70;;
50988;SDS011;37008;52.210;21.112;2023-01-10T02:43:53;84.22;;;40.83;;
50988;SDS011;37008;52.210;21.112;2023-01-10T02:46:31;84.40;;;40.90;;
50988;SDS011;37008;52.210;21.112;2023-01-10T02:48:59;97.35;;;44.78;;
50988;SDS011;37008;52.210;21.112;2023-01-10T02:51:26;90.07;;;42.83;;
50988;SDS011;37008;52.210;21.112;2023-01-10T02:54:01;94.97;;;44.40;;
50988;SDS011;37008;52.210;21.112;2023-01-10T02:56:56;94.32;;;44.88;;
50988;SDS011;37008;52.210;21.112;2023-01-10T03:04:59;87.80;;;42.25;;
50988;SDS011;37008;52.210;21.112;2023-01-10T03:07:52;91.93;;;43.35;;
50988;SDS011;37008;52.210;21.112;2023-01-10T03:13:26;96.97;;;43.78;;
50988;SDS011;37008;52.210;21.112;2023-01-10T03:16:07;100.35;;;45.80;;
50988;SDS011;37008;52.210;21.112;2023-01-10T03:18:41;99.43;;;44.80;;
50988;SDS011;37008;52.210;21.112;2023-01-10T03:21:19;96.13;;;46.35;;
50988;SDS011;37008;52.210;21.112;2023-01-10T03:23:48;95.75;;;43.63;;
50988;SDS011;37008;52.210;21.112;2023-01-10T03:26:18;92.10;;;45.10;;
50988;SDS011;37008;52.210;21.112;2023-01-10T03:28:51;93.15;;;43.08;;
50988;SDS011;37008;52.210;21.112;2023-01-10T03:31:26;99.00;;;44.38;;
50988;SDS011;37008;52.210;21.112;2023-01-10T03:33:56;82.72;;;42.90;;
50988;SDS011;37008;52.210;21.112;2023-01-10T03:36:33;93.68;;;43.22;;
50988;SDS011;37008;52.210;21.112;2023-01-10T03:39:17;87.07;;;42.92;;
50988;SDS011;37008;52.210;21.112;2023-01-10T03:47:24;90.53;;;42.05;;
50988;SDS011;37008;52.210;21.112;2023-01-10T03:50:10;91.03;;;42.63;;
50988;SDS011;37008;52.210;21.112;2023-01-10T03:52:44;83.05;;;40.55;;
50988;SDS011;37008;52.210;21.112;2023-01-10T03:55:11;70.53;;;38.38;;
50988;SDS011;37008;52.210;21.112;2023-01-10T03:57:42;78.72;;;40.05;;
50988;SDS011;37008;52.210;21.112;2023-01-10T04:00:10;79.88;;;39.40;;
50988;SDS011;37008;52.210;21.112;2023-01-10T04:02:37;77.50;;;39.92;;
50988;SDS011;37008;52.210;21.112;2023-01-10T04:05:03;83.60;;;39.78;;
50988;SDS011;37008;52.210;21.112;2023-01-10T04:07:29;75.35;;;38.15;;
50988;SDS011;37008;52.210;21.112;2023-01-10T04:09:55;77.05;;;38.90;;
50988;SDS011;37008;52.210;21.112;2023-01-10T04:12:20;89.80;;;41.83;;
50988;SDS011;37008;52.210;21.112;2023-01-10T04:14:46;84.05;;;40.30;;
50988;SDS011;37008;52.210;21.112;2023-01-10T04:17:12;73.97;;;37.25;;
50988;SDS011;37008;52.210;21.112;2023-01-10T04:19:39;73.70;;;37.80;;
50988;SDS011;37008;52.210;21.112;2023-01-10T04:22:05;74.03;;;38.45;;
50988;SDS011;37008;52.210;21.112;2023-01-10T04:24:31;79.57;;;40.20;;
50988;SDS011;37008;52.210;21.112;2023-01-10T04:26:57;86.45;;;40.80;;
50988;SDS011;37008;52.210;21.112;2023-01-10T04:29:22;73.60;;;36.15;;
50988;SDS011;37008;52.210;21.112;2023-01-10T04:31:48;81.40;;;38.95;;
50988;SDS011;37008;52.210;21.112;2023-01-10T04:34:14;79.03;;;39.85;;
50988;SDS011;37008;52.210;21.112;2023-01-10T04:36:40;77.22;;;39.70;;
50988;SDS011;37008;52.210;21.112;2023-01-10T04:39:06;77.18;;;38.92;;
50988;SDS011;37008;52.210;21.112;2023-01-10T04:41:32;84.25;;;40.35;;
50988;SDS011;37008;52.210;21.112;2023-01-10T04:43:58;86.30;;;41.17;;
50988;SDS011;37008;52.210;21.112;2023-01-10T04:46:23;79.63;;;39.38;;
50988;SDS011;37008;52.210;21.112;2023-01-10T04:48:49;84.63;;;40.15;;
50988;SDS011;37008;52.210;21.112;2023-01-10T04:51:14;82.70;;;38.85;;
50988;SDS011;37008;52.210;21.112;2023-01-10T04:53:40;81.93;;;40.17;;
50988;SDS011;37008;52.210;21.112;2023-01-10T04:56:06;85.63;;;39.80;;
50988;SDS011;37008;52.210;21.112;2023-01-10T04:58:39;82.00;;;40.20;;
50988;SDS011;37008;52.210;21.112;2023-01-10T05:01:06;88.72;;;41.50;;
50988;SDS011;37008;52.210;21.112;2023-01-10T05:03:36;92.72;;;41.42;;
50988;SDS011;37008;52.210;21.112;2023-01-10T05:06:02;89.57;;;41.40;;
50988;SDS011;37008;52.210;21.112;2023-01-10T05:08:28;94.47;;;42.95;;
50988;SDS011;37008;52.210;21.112;2023-01-10T05:10:53;90.88;;;40.10;;
50988;SDS011;37008;52.210;21.112;2023-01-10T05:13:19;92.60;;;40.67;;
50988;SDS011;37008;52.210;21.112;2023-01-10T05:15:44;87.03;;;39.85;;
50988;SDS011;37008;52.210;21.112;2023-01-10T05:18:10;86.80;;;41.60;;
50988;SDS011;37008;52.210;21.112;2023-01-10T05:20:36;91.93;;;41.30;;
50988;SDS011;37008;52.210;21.112;2023-01-10T05:23:01;88.60;;;40.42;;
50988;SDS011;37008;52.210;21.112;2023-01-10T05:25:27;93.95;;;41.83;;
50988;SDS011;37008;52.210;21.112;2023-01-10T05:27:52;87.85;;;40.25;;
50988;SDS011;37008;52.210;21.112;2023-01-10T05:30:19;88.47;;;38.58;;
50988;SDS011;37008;52.210;21.112;2023-01-10T05:32:45;87.20;;;41.15;;
50988;SDS011;37008;52.210;21.112;2023-01-10T05:35:11;99.43;;;41.15;;
50988;SDS011;37008;52.210;21.112;2023-01-10T05:37:36;82.10;;;39.78;;
50988;SDS011;37008;52.210;21.112;2023-01-10T05:40:02;83.90;;;38.35;;
50988;SDS011;37008;52.210;21.112;2023-01-10T05:42:28;79.97;;;35.38;;
50988;SDS011;37008;52.210;21.112;2023-01-10T05:44:54;83.15;;;39.45;;
50988;SDS011;37008;52.210;21.112;2023-01-10T05:47:19;83.00;;;39.55;;
50988;SDS011;37008;52.210;21.112;2023-01-10T05:49:45;98.15;;;42.08;;
50988;SDS011;37008;52.210;21.112;2023-01-10T05:52:10;97.53;;;42.00;;
50988;SDS011;37008;52.210;21.112;2023-01-10T05:54:36;88.57;;;39.15;;
50988;SDS011;37008;52.210;21.112;2023-01-10T05:57:02;97.47;;;42.35;;
50988;SDS011;37008;52.210;21.112;2023-01-10T05:59:27;87.45;;;38.03;;
50988;SDS011;37008;52.210;21.112;2023-01-10T06:01:53;90.95;;;40.05;;
50988;SDS011;37008;52.210;21.112;2023-01-10T06:04:18;97.80;;;41.70;;
50988;SDS011;37008;52.210;21.112;2023-01-10T06:06:44;92.22;;;40.88;;
50988;SDS011;37008;52.210;21.112;2023-01-10T06:09:09;90.47;;;40.55;;
50988;SDS011;37008;52.210;21.112;2023-01-10T06:11:35;89.05;;;39.97;;
50988;SDS011;37008;52.210;21.112;2023-01-10T06:14:02;105.32;;;42.65;;
50988;SDS011;37008;52.210;21.112;2023-01-10T06:16:29;98.30;;;42.33;;
50988;SDS011;37008;52.210;21.112;2023-01-10T06:18:54;107.47;;;43.05;;
50988;SDS011;37008;52.210;21.112;2023-01-10T06:21:20;98.68;;;42.13;;
50988;SDS011;37008;52.210;21.112;2023-01-10T06:23:46;110.53;;;44.40;;
50988;SDS011;37008;52.210;21.112;2023-01-10T06:26:11;102.72;;;43.78;;
50988;SDS011;37008;52.210;21.112;2023-01-10T06:28:37;106.78;;;42.67;;
50988;SDS011;37008;52.210;21.112;2023-01-10T06:31:05;107.15;;;46.15;;
50988;SDS011;37008;52.210;21.112;2023-01-10T06:33:31;111.53;;;44.28;;
50988;SDS011;37008;52.210;21.112;2023-01-10T06:35:57;98.90;;;42.10;;
50988;SDS011;37008;52.210;21.112;2023-01-10T06:38:22;112.82;;;44.67;;
50988;SDS011;37008;52.210;21.112;2023-01-10T06:40:48;106.97;;;43.08;;
50988;SDS011;37008;52.210;21.112;2023-01-10T06:43:14;109.93;;;43.15;;
50988;SDS011;37008;52.210;21.112;2023-01-10T06:45:39;103.07;;;43.47;;
50988;SDS011;37008;52.210;21.112;2023-01-10T06:48:05;100.10;;;39.90;;
50988;SDS011;37008;52.210;21.112;2023-01-10T06:50:30;106.63;;;44.40;;
50988;SDS011;37008;52.210;21.112;2023-01-10T06:52:56;88.70;;;34.65;;
50988;SDS011;37008;52.210;21.112;2023-01-10T06:55:23;102.07;;;41.08;;
50988;SDS011;37008;52.210;21.112;2023-01-10T06:58:00;105.28;;;43.95;;
50988;SDS011;37008;52.210;21.112;2023-01-10T07:00:27;100.88;;;40.80;;
50988;SDS011;37008;52.210;21.112;2023-01-10T07:02:57;103.97;;;42.38;;
50988;SDS011;37008;52.210;21.112;2023-01-10T07:05:23;95.75;;;39.30;;
50988;SDS011;37008;52.210;21.112;2023-01-10T07:07:49;99.75;;;40.70;;
50988;SDS011;37008;52.210;21.112;2023-01-10T07:10:15;112.35;;;39.63;;
50988;SDS011;37008;52.210;21.112;2023-01-10T07:12:41;121.18;;;45.25;;
50988;SDS011;37008;52.210;21.112;2023-01-10T07:15:06;114.18;;;40.28;;
50988;SDS011;37008;52.210;21.112;2023-01-10T07:17:32;109.82;;;41.97;;
50988;SDS011;37008;52.210;21.112;2023-01-10T07:19:58;120.47;;;41.47;;
50988;SDS011;37008;52.210;21.112;2023-01-10T07:22:24;109.43;;;39.38;;
50988;SDS011;37008;52.210;21.112;2023-01-10T07:24:49;97.28;;;39.03;;
50988;SDS011;37008;52.210;21.112;2023-01-10T07:27:15;111.18;;;40.38;;
50988;SDS011;37008;52.210;21.112;2023-01-10T07:29:41;93.28;;;33.90;;
50988;SDS011;37008;52.210;21.112;2023-01-10T07:32:06;116.85;;;44.13;;
50988;SDS011;37008;52.210;21.112;2023-01-10T07:34:32;101.53;;;41.58;;
50988;SDS011;37008;52.210;21.112;2023-01-10T07:36:57;108.50;;;41.28;;
50988;SDS011;37008;52.210;21.112;2023-01-10T07:39:23;125.07;;;43.13;;
50988;SDS011;37008;52.210;21.112;2023-01-10T07:41:49;130.48;;;44.60;;
50988;SDS011;37008;52.210;21.112;2023-01-10T07:44:14;117.10;;;43.67;;
50988;SDS011;37008;52.210;21.112;2023-01-10T07:46:40;129.00;;;45.78;;
50988;SDS011;37008;52.210;21.112;2023-01-10T07:49:07;118.00;;;44.03;;
50988;SDS011;37008;52.210;21.112;2023-01-10T07:51:32;118.78;;;45.03;;
50988;SDS011;37008;52.210;21.112;2023-01-10T07:53:58;109.22;;;43.13;;
50988;SDS011;37008;52.210;21.112;2023-01-10T07:56:23;103.85;;;40.55;;
50988;SDS011;37008;52.210;21.112;2023-01-10T07:58:49;113.50;;;45.40;;
50988;SDS011;37008;52.210;21.112;2023-01-10T08:01:15;108.82;;;44.05;;
50988;SDS011;37008;52.210;21.112;2023-01-10T08:03:41;111.70;;;44.63;;
50988;SDS011;37008;52.210;21.112;2023-01-10T08:06:07;107.30;;;45.25;;
50988;SDS011;37008;52.210;21.112;2023-01-10T08:08:36;108.28;;;45.00;;
50988;SDS011;37008;52.210;21.112;2023-01-10T08:11:02;107.43;;;45.05;;
50988;SDS011;37008;52.210;21.112;2023-01-10T08:13:29;107.25;;;43.50;;
50988;SDS011;37008;52.210;21.112;2023-01-10T08:15:56;98.30;;;40.20;;
50988;SDS011;37008;52.210;21.112;2023-01-10T08:18:22;101.22;;;40.92;;
50988;SDS011;37008;52.210;21.112;2023-01-10T08:20:49;99.85;;;42.38;;
50988;SDS011;37008;52.210;21.112;2023-01-10T08:23:18;103.85;;;42.70;;
50988;SDS011;37008;52.210;21.112;2023-01-10T08:25:44;104.03;;;42.08;;
50988;SDS011;37008;52.210;21.112;2023-01-10T08:28:10;100.68;;;40.95;;
50988;SDS011;37008;52.210;21.112;2023-01-10T08:30:36;96.70;;;41.60;;
50988;SDS011;37008;52.210;21.112;2023-01-10T08:33:03;98.82;;;41.83;;
50988;SDS011;37008;52.210;21.112;2023-01-10T08:35:34;112.40;;;45.20;;
50988;SDS011;37008;52.210;21.112;2023-01-10T08:38:01;98.15;;;39.97;;
50988;SDS011;37008;52.210;21.112;2023-01-10T08:40:27;110.72;;;42.25;;
50988;SDS011;37008;52.210;21.112;2023-01-10T08:42:59;83.35;;;34.00;;
50988;SDS011;37008;52.210;21.112;2023-01-10T08:45:29;89.60;;;39.78;;
50988;SDS011;37008;52.210;21.112;2023-01-10T08:47:55;90.72;;;40.03;;
50988;SDS011;37008;52.210;21.112;2023-01-10T08:50:21;94.13;;;42.50;;
50988;SDS011;37008;52.210;21.112;2023-01-10T08:52:47;91.03;;;40.85;;
50988;SDS011;37008;52.210;21.112;2023-01-10T08:55:12;91.35;;;35.50;;
50988;SDS011;37008;52.210;21.112;2023-01-10T08:57:38;93.55;;;41.20;;
50988;SDS011;37008;52.210;21.112;2023-01-10T09:00:04;85.88;;;39.90;;
50988;SDS011;37008;52.210;21.112;2023-01-10T09:02:30;89.88;;;40.15;;
50988;SDS011;37008;52.210;21.112;2023-01-10T09:04:56;89.15;;;41.17;;
50988;SDS011;37008;52.210;21.112;2023-01-10T09:07:21;85.68;;;39.60;;
50988;SDS011;37008;52.210;21.112;2023-01-10T09:09:47;88.65;;;42.92;;
50988;SDS011;37008;52.210;21.112;2023-01-10T09:12:13;84.50;;;41.38;;
50988;SDS011;37008;52.210;21.112;2023-01-10T09:14:57;83.15;;;39.50;;
50988;SDS011;37008;52.210;21.112;2023-01-10T09:17:22;84.97;;;39.00;;
50988;SDS011;37008;52.210;21.112;2023-01-10T09:19:48;84.38;;;41.00;;
50988;SDS011;37008;52.210;21.112;2023-01-10T09:22:14;77.43;;;36.30;;
50988;SDS011;37008;52.210;21.112;2023-01-10T09:24:40;81.47;;;39.85;;
50988;SDS011;37008;52.210;21.112;2023-01-10T09:27:07;69.15;;;40.03;;
50988;SDS011;37008;52.210;21.112;2023-01-10T09:29:34;74.60;;;40.90;;
50988;SDS011;37008;52.210;21.112;2023-01-10T09:31:59;70.57;;;38.75;;
50988;SDS011;37008;52.210;21.112;2023-01-10T09:34:25;70.93;;;39.35;;
50988;SDS011;37008;52.210;21.112;2023-01-10T09:36:51;75.55;;;39.25;;
50988;SDS011;37008;52.210;21.112;2023-01-10T09:39:17;76.38;;;39.28;;
50988;SDS011;37008;52.210;21.112;2023-01-10T09:41:57;73.13;;;37.38;;
50988;SDS011;37008;52.210;21.112;2023-01-10T09:47:19;74.25;;;37.72;;
50988;SDS011;37008;52.210;21.112;2023-01-10T09:52:31;73.70;;;38.35;;
50988;SDS011;37008;52.210;21.112;2023-01-10T09:55:05;69.85;;;35.50;;
50988;SDS011;37008;52.210;21.112;2023-01-10T09:58:14;74.30;;;39.75;;
50988;SDS011;37008;52.210;21.112;2023-01-10T10:00:54;78.35;;;39.83;;
50988;SDS011;37008;52.210;21.112;2023-01-10T10:05:55;78.35;;;40.78;;
50988;SDS011;37008;52.210;21.112;2023-01-10T10:08:21;75.97;;;40.67;;
50988;SDS011;37008;52.210;21.112;2023-01-10T10:10:50;83.72;;;40.22;;
50988;SDS011;37008;52.210;21.112;2023-01-10T10:13:34;79.40;;;41.15;;
50988;SDS011;37008;52.210;21.112;2023-01-10T10:16:19;82.03;;;41.38;;
50988;SDS011;37008;52.210;21.112;2023-01-10T10:19:01;80.57;;;40.30;;
50988;SDS011;37008;52.210;21.112;2023-01-10T10:21:47;86.60;;;40.80;;
50988;SDS011;37008;52.210;21.112;2023-01-10T10:35:12;80.43;;;41.75;;
50988;SDS011;37008;52.210;21.112;2023-01-10T10:37:51;80.25;;;41.45;;
50988;SDS011;37008;52.210;21.112;2023-01-10T10:40:20;78.13;;;40.20;;
50988;SDS011;37008;52.210;21.112;2023-01-10T10:42:48;77.53;;;40.35;;
50988;SDS011;37008;52.210;21.112;2023-01-10T10:51:05;71.38;;;38.15;;
50988;SDS011;37008;52.210;21.112;2023-01-10T10:53:36;87.00;;;42.10;;
50988;SDS011;37008;52.210;21.112;2023-01-10T10:56:03;79.35;;;37.55;;
50988;SDS011;37008;52.210;21.112;2023-01-10T10:58:31;74.30;;;37.83;;
50988;SDS011;37008;52.210;21.112;2023-01-10T11:00:58;76.88;;;38.25;;
50988;SDS011;37008;52.210;21.112;2023-01-10T11:06:23;75.75;;;41.13;;
50988;SDS011;37008;52.210;21.112;2023-01-10T11:08:52;82.32;;;41.15;;
50988;SDS011;37008;52.210;21.112;2023-01-10T11:11:28;77.90;;;42.72;;
50988;SDS011;37008;52.210;21.112;2023-01-10T11:14:00;74.78;;;39.28;;
50988;SDS011;37008;52.210;21.112;2023-01-10T11:19:08;75.18;;;38.70;;
50988;SDS011;37008;52.210;21.112;2023-01-10T11:21:33;75.72;;;38.80;;
50988;SDS011;37008;52.210;21.112;2023-01-10T11:23:59;77.50;;;38.35;;
50988;SDS011;37008;52.210;21.112;2023-01-10T11:26:26;76.20;;;38.45;;
50988;SDS011;37008;52.210;21.112;2023-01-10T11:29:08;79.43;;;40.67;;
50988;SDS011;37008;52.210;21.112;2023-01-10T11:31:44;77.45;;;39.65;;
50988;SDS011;37008;52.210;21.112;2023-01-10T11:37:32;75.82;;;38.22;;
50988;SDS011;37008;52.210;21.112;2023-01-10T11:39:41;70.20;;;37.15;;
50988;SDS011;37008;52.210;21.112;2023-01-10T11:44:47;71.57;;;38.40;;
50988;SDS011;37008;52.210;21.112;2023-01-10T11:47:13;73.53;;;38.20;;
50988;SDS011;37008;52.210;21.112;2023-01-10T11:49:41;76.30;;;37.95;;
50988;SDS011;37008;52.210;21.112;2023-01-10T11:52:24;67.72;;;34.85;;
50988;SDS011;37008;52.210;21.112;2023-01-10T11:54:53;70.60;;;35.75;;
50988;SDS011;37008;52.210;21.112;2023-01-10T11:57:24;71.00;;;35.90;;
50988;SDS011;37008;52.210;21.112;2023-01-10T11:59:53;67.93;;;35.30;;
50988;SDS011;37008;52.210;21.112;2023-01-10T12:02:29;66.78;;;33.65;;
50988;SDS011;37008;52.210;21.112;2023-01-10T12:05:00;68.50;;;35.33;;
50988;SDS011;37008;52.210;21.112;2023-01-10T12:07:30;71.32;;;35.25;;
50988;SDS011;37008;52.210;21.112;2023-01-10T12:10:33;66.47;;;35.42;;
50988;SDS011;37008;52.210;21.112;2023-01-10T12:13:06;62.08;;;31.45;;
50988;SDS011;37008;52.210;21.112;2023-01-10T12:15:39;64.38;;;31.70;;
50988;SDS011;37008;52.210;21.112;2023-01-10T12:18:05;70.88;;;35.60;;
50988;SDS011;37008;52.210;21.112;2023-01-10T12:20:32;66.32;;;35.10;;
50988;SDS011;37008;52.210;21.112;2023-01-10T12:23:11;71.90;;;34.80;;
50988;SDS011;37008;52.210;21.112;2023-01-10T12:25:41;65.22;;;33.70;;
50988;SDS011;37008;52.210;21.112;2023-01-10T12:28:13;58.60;;;32.95;;
50988;SDS011;37008;52.210;21.112;2023-01-10T12:30:49;66.82;;;32.90;;
50988;SDS011;37008;52.210;21.112;2023-01-10T12:33:25;61.47;;;29.48;;
50988;SDS011;37008;52.210;21.112;2023-01-10T12:36:15;52.60;;;25.92;;
50988;SDS011;37008;52.210;21.112;2023-01-10T12:39:07;57.50;;;27.95;;
50988;SDS011;37008;52.210;21.112;2023-01-10T12:41:56;63.05;;;30.02;;
50988;SDS011;37008;52.210;21.112;2023-01-10T12:44:50;54.40;;;28.95;;
50988;SDS011;37008;52.210;21.112;2023-01-10T12:47:51;47.85;;;26.55;;
50988;SDS011;37008;52.210;21.112;2023-01-10T12:53:02;51.80;;;29.23;;
50988;SDS011;37008;52.210;21.112;2023-01-10T12:55:36;51.15;;;22.92;;
50988;SDS011;37008;52.210;21.112;2023-01-10T12:58:12;55.10;;;29.77;;
50988;SDS011;37008;52.210;21.112;2023-01-10T13:00:48;48.55;;;26.98;;
50988;SDS011;37008;52.210;21.112;2023-01-10T13:03:21;55.30;;;28.67;;
50988;SDS011;37008;52.210;21.112;2023-01-10T13:05:49;53.70;;;27.63;;
50988;SDS011;37008;52.210;21.112;2023-01-10T13:08:18;49.50;;;27.60;;
50988;SDS011;37008;52.210;21.112;2023-01-10T13:10:48;48.65;;;28.15;;
50988;SDS011;37008;52.210;21.112;2023-01-10T13:18:37;53.63;;;29.02;;
50988;SDS011;37008;52.210;21.112;2023-01-10T13:21:24;49.67;;;28.85;;
50988;SDS011;37008;52.210;21.112;2023-01-10T13:23:51;54.60;;;29.77;;
50988;SDS011;37008;52.210;21.112;2023-01-10T13:26:21;53.90;;;30.42;;
50988;SDS011;37008;52.210;21.112;2023-01-10T13:28:56;47.70;;;26.63;;
50988;SDS011;37008;52.210;21.112;2023-01-10T13:31:24;47.13;;;27.25;;
50988;SDS011;37008;52.210;21.112;2023-01-10T13:34:02;34.22;;;17.20;;
50988;SDS011;37008;52.210;21.112;2023-01-10T13:36:36;47.90;;;28.08;;
50988;SDS011;37008;52.210;21.112;2023-01-10T13:39:15;42.28;;;26.13;;
50988;SDS011;37008;52.210;21.112;2023-01-10T13:48:00;47.60;;;26.83;;
50988;SDS011;37008;52.210;21.112;2023-01-10T13:52:46;43.05;;;26.30;;
50988;SDS011;37008;52.210;21.112;2023-01-10T13:57:54;45.95;;;29.15;;
50988;SDS011;37008;52.210;21.112;2023-01-10T14:00:25;47.30;;;30.10;;
50988;SDS011;37008;52.210;21.112;2023-01-10T14:08:49;46.97;;;27.25;;
50988;SDS011;37008;52.210;21.112;2023-01-10T14:11:17;42.35;;;26.77;;
50988;SDS011;37008;52.210;21.112;2023-01-10T14:13:45;45.15;;;27.77;;
50988;SDS011;37008;52.210;21.112;2023-01-10T14:16:35;45.05;;;27.67;;
50988;SDS011;37008;52.210;21.112;2023-01-10T14:19:04;45.13;;;28.67;;
50988;SDS011;37008;52.210;21.112;2023-01-10T14:21:43;46.58;;;28.13;;
50988;SDS011;37008;52.210;21.112;2023-01-10T14:24:32;45.15;;;28.23;;
50988;SDS011;37008;52.210;21.112;2023-01-10T14:26:58;46.45;;;29.25;;
50988;SDS011;37008;52.210;21.112;2023-01-10T14:29:26;45.83;;;28.98;;
50988;SDS011;37008;52.210;21.112;2023-01-10T14:31:55;46.92;;;29.63;;
50988;SDS011;37008;52.210;21.112;2023-01-10T14:34:27;51.03;;;31.27;;
50988;SDS011;37008;52.210;21.112;2023-01-10T14:37:00;51.00;;;31.55;;
50988;SDS011;37008;52.210;21.112;2023-01-10T14:39:47;52.60;;;34.17;;
50988;SDS011;37008;52.210;21.112;2023-01-10T14:42:14;51.58;;;30.27;;
50988;SDS011;37008;52.210;21.112;2023-01-10T14:44:50;52.65;;;32.47;;
50988;SDS011;37008;52.210;21.112;2023-01-10T14:49:56;44.63;;;28.90;;
50988;SDS011;37008;52.210;21.112;2023-01-10T14:52:31;48.22;;;30.95;;
50988;SDS011;37008;52.210;21.112;2023-01-10T14:55:30;45.90;;;29.92;;
50988;SDS011;37008;52.210;21.112;2023-01-10T14:57:52;44.97;;;27.85;;
50988;SDS011;37008;52.210;21.112;2023-01-10T15:00:22;46.58;;;28.98;;
50988;SDS011;37008;52.210;21.112;2023-01-10T15:02:51;41.97;;;28.13;;
50988;SDS011;37008;52.210;21.112;2023-01-10T15:05:17;44.17;;;27.50;;
50988;SDS011;37008;52.210;21.112;2023-01-10T15:07:45;32.50;;;17.15;;
50988;SDS011;37008;52.210;21.112;2023-01-10T15:10:24;40.45;;;26.58;;
50988;SDS011;37008;52.210;21.112;2023-01-10T15:12:59;42.35;;;26.52;;
50988;SDS011;37008;52.210;21.112;2023-01-10T15:15:31;43.85;;;27.05;;
50988;SDS011;37008;52.210;21.112;2023-01-10T15:17:59;42.72;;;26.15;;
50988;SDS011;37008;52.210;21.112;2023-01-10T15:20:26;42.10;;;25.55;;
50988;SDS011;37008;52.210;21.112;2023-01-10T15:22:57;39.45;;;25.63;;
50988;SDS011;37008;52.210;21.112;2023-01-10T15:27:54;37.22;;;24.05;;
50988;SDS011;37008;52.210;21.112;2023-01-10T15:30:22;34.58;;;22.85;;
50988;SDS011;37008;52.210;21.112;2023-01-10T15:32:51;41.72;;;25.30;;
50988;SDS011;37008;52.210;21.112;2023-01-10T15:35:21;41.75;;;25.80;;
50988;SDS011;37008;52.210;21.112;2023-01-10T15:37:51;44.53;;;27.75;;
50988;SDS011;37008;52.210;21.112;2023-01-10T15:40:21;39.35;;;26.50;;
50988;SDS011;37008;52.210;21.112;2023-01-10T15:42:48;42.28;;;25.95;;
50988;SDS011;37008;52.210;21.112;2023-01-10T15:45:28;38.78;;;23.08;;
50988;SDS011;37008;52.210;21.112;2023-01-10T15:48:01;34.70;;;21.45;;
50988;SDS011;37008;52.210;21.112;2023-01-10T15:50:37;38.50;;;22.95;;
50988;SDS011;37008;52.210;21.112;2023-01-10T15:53:04;32.95;;;20.85;;
50988;SDS011;37008;52.210;21.112;2023-01-10T15:55:39;36.95;;;23.08;;
50988;SDS011;37008;52.210;21.112;2023-01-10T15:58:49;37.25;;;22.30;;
50988;SDS011;37008;52.210;21.112;2023-01-10T16:01:00;38.20;;;20.67;;
50988;SDS011;37008;52.210;21.112;2023-01-10T16:03:30;36.13;;;20.60;;